sensor_id;sensor_type;location;lat;lon;timestamp;P1;durP1;ratioP1;P2;durP2;ratioP2
57535;SDS011;43361;49.790;8.960;2023-02-11T00:09:06;5.25;;;3.50;;
57535;SDS011;43361;49.790;8.960;2023-02-11T00:19:08;7.10;;;3.90;;
57535;SDS011;43361;49.790;8.960;2023-02-11T00:29:08;5.80;;;3.40;;
57535;SDS011;43361;49.790;8.960;2023-02-11T00:39:10;5.70;;;3.67;;
57535;SDS011;43361;49.790;8.960;2023-02-11T00:49:11;6.40;;;3.75;;
57535;SDS011;43361;49.790;8.960;2023-02-11T00:59:13;5.45;;;3.50;;
57535;SDS011;43361;49.790;8.960;2023-02-11T01:09:13;4.97;;;3.25;;
57535;SDS011;43361;49.790;8.960;2023-02-11T01:19:15;4.57;;;3.22;;
57535;SDS011;43361;49.790;8.960;2023-02-11T01:29:15;5.28;;;3.22;;
57535;SDS011;43361;49.790;8.960;2023-02-11T01:39:17;5.55;;;3.33;;
57535;SDS011;43361;49.790;8.960;2023-02-11T01:49:18;6.45;;;3.67;;
57535;SDS011;43361;49.790;8.960;2023-02-11T01:59:23;4.30;;;3.30;;
57535;SDS011;43361;49.790;8.960;2023-02-11T02:09:26;6.45;;;3.20;;
57535;SDS011;43361;49.790;8.960;2023-02-11T02:40:24;9.55;;;3.35;;
57535;SDS011;43361;49.790;8.960;2023-02-11T02:50:27;4.45;;;3.25;;
57535;SDS011;43361;49.790;8.960;2023-02-11T03:00:31;5.30;;;3.15;;
57535;SDS011;43361;49.790;8.960;2023-02-11T03:10:35;4.63;;;3.15;;
57535;SDS011;43361;49.790;8.960;2023-02-11T03:20:39;4.90;;;2.92;;
57535;SDS011;43361;49.790;8.960;2023-02-11T03:30:42;6.85;;;3.22;;
57535;SDS011;43361;49.790;8.960;2023-02-11T03:40:44;4.22;;;3.20;;
57535;SDS011;43361;49.790;8.960;2023-02-11T03:50:45;4.00;;;2.90;;
57535;SDS011;43361;49.790;8.960;2023-02-11T04:00:47;5.20;;;2.90;;
57535;SDS011;43361;49.790;8.960;2023-02-11T04:10:47;3.65;;;2.40;;
57535;SDS011;43361;49.790;8.960;2023-02-11T04:20:49;4.05;;;2.90;;
57535;SDS011;43361;49.790;8.960;2023-02-11T04:30:49;3.10;;;2.40;;
57535;SDS011;43361;49.790;8.960;2023-02-11T04:40:51;4.38;;;2.42;;
57535;SDS011;43361;49.790;8.960;2023-02-11T04:50:52;3.55;;;2.60;;
57535;SDS011;43361;49.790;8.960;2023-02-11T05:00:54;3.67;;;2.50;;
57535;SDS011;43361;49.790;8.960;2023-02-11T05:10:54;4.32;;;2.70;;
57535;SDS011;43361;49.790;8.960;2023-02-11T05:20:56;3.20;;;2.42;;
57535;SDS011;43361;49.790;8.960;2023-02-11T05:30:56;3.47;;;2.53;;
57535;SDS011;43361;49.790;8.960;2023-02-11T05:40:59;4.43;;;2.45;;
57535;SDS011;43361;49.790;8.960;2023-02-11T05:50:59;4.07;;;2.53;;
57535;SDS011;43361;49.790;8.960;2023-02-11T06:01:01;3.50;;;2.55;;
57535;SDS011;43361;49.790;8.960;2023-02-11T06:11:01;2.35;;;2.00;;
57535;SDS011;43361;49.790;8.960;2023-02-11T06:21:06;5.18;;;3.20;;
57535;SDS011;43361;49.790;8.960;2023-02-11T06:31:07;4.50;;;3.22;;
57535;SDS011;43361;49.790;8.960;2023-02-11T06:41:10;5.50;;;3.50;;
57535;SDS011;43361;49.790;8.960;2023-02-11T06:51:11;11.45;;;3.58;;
57535;SDS011;43361;49.790;8.960;2023-02-11T07:01:14;6.05;;;3.15;;
57535;SDS011;43361;49.790;8.960;2023-02-11T07:11:15;4.50;;;3.47;;
57535;SDS011;43361;49.790;8.960;2023-02-11T07:21:18;8.70;;;3.92;;
57535;SDS011;43361;49.790;8.960;2023-02-11T07:31:19;7.22;;;3.95;;
57535;SDS011;43361;49.790;8.960;2023-02-11T07:41:22;9.43;;;4.10;;
57535;SDS011;43361;49.790;8.960;2023-02-11T07:51:23;8.98;;;3.78;;
57535;SDS011;43361;49.790;8.960;2023-02-11T08:01:25;21.45;;;4.30;;
57535;SDS011;43361;49.790;8.960;2023-02-11T08:11:27;19.73;;;5.00;;
57535;SDS011;43361;49.790;8.960;2023-02-11T08:21:29;20.08;;;5.00;;
57535;SDS011;43361;49.790;8.960;2023-02-11T08:31:31;17.38;;;4.07;;
57535;SDS011;43361;49.790;8.960;2023-02-11T08:41:33;20.70;;;5.38;;
57535;SDS011;43361;49.790;8.960;2023-02-11T08:51:34;46.47;;;5.50;;
57535;SDS011;43361;49.790;8.960;2023-02-11T09:01:36;33.33;;;4.88;;
57535;SDS011;43361;49.790;8.960;2023-02-11T09:11:36;30.77;;;4.80;;
57535;SDS011;43361;49.790;8.960;2023-02-11T09:21:38;20.33;;;4.78;;
57535;SDS011;43361;49.790;8.960;2023-02-11T09:31:38;17.10;;;4.63;;
57535;SDS011;43361;49.790;8.960;2023-02-11T09:41:56;21.40;;;4.55;;
57535;SDS011;43361;49.790;8.960;2023-02-11T09:52:00;22.42;;;4.47;;
57535;SDS011;43361;49.790;8.960;2023-02-11T10:02:05;23.35;;;4.28;;
57535;SDS011;43361;49.790;8.960;2023-02-11T10:12:15;19.00;;;4.40;;
57535;SDS011;43361;49.790;8.960;2023-02-11T10:22:21;12.70;;;4.23;;
57535;SDS011;43361;49.790;8.960;2023-02-11T10:32:26;21.27;;;4.63;;
57535;SDS011;43361;49.790;8.960;2023-02-11T10:42:31;17.20;;;4.10;;
57535;SDS011;43361;49.790;8.960;2023-02-11T10:52:31;12.82;;;4.05;;
57535;SDS011;43361;49.790;8.960;2023-02-11T11:02:34;1713.43;;;629.58;;
57535;SDS011;43361;49.790;8.960;2023-02-11T11:12:36;901.75;;;361.05;;
57535;SDS011;43361;49.790;8.960;2023-02-11T11:22:40;791.00;;;316.50;;
57535;SDS011;43361;49.790;8.960;2023-02-11T11:32:41;714.20;;;286.67;;
57535;SDS011;43361;49.790;8.960;2023-02-11T11:42:43;657.65;;;264.92;;
57535;SDS011;43361;49.790;8.960;2023-02-11T11:52:45;596.30;;;222.85;;
57535;SDS011;43361;49.790;8.960;2023-02-11T12:02:57;528.78;;;201.32;;
57535;SDS011;43361;49.790;8.960;2023-02-11T12:13:05;488.77;;;177.90;;
57535;SDS011;43361;49.790;8.960;2023-02-11T12:23:20;469.85;;;170.05;;
57535;SDS011;43361;49.790;8.960;2023-02-11T12:33:30;461.15;;;161.55;;
57535;SDS011;43361;49.790;8.960;2023-02-11T12:43:35;412.73;;;137.85;;
57535;SDS011;43361;49.790;8.960;2023-02-11T12:53:44;396.85;;;135.93;;
57535;SDS011;43361;49.790;8.960;2023-02-11T13:03:50;351.90;;;118.38;;
57535;SDS011;43361;49.790;8.960;2023-02-11T13:13:54;348.15;;;118.15;;
57535;SDS011;43361;49.790;8.960;2023-02-11T13:23:56;333.60;;;114.93;;
57535;SDS011;43361;49.790;8.960;2023-02-11T13:33:58;314.48;;;111.63;;
57535;SDS011;43361;49.790;8.960;2023-02-11T13:44:02;300.88;;;100.82;;
57535;SDS011;43361;49.790;8.960;2023-02-11T13:54:03;269.90;;;95.35;;
57535;SDS011;43361;49.790;8.960;2023-02-11T14:04:16;259.85;;;89.80;;
57535;SDS011;43361;49.790;8.960;2023-02-11T14:14:38;240.95;;;82.30;;
57535;SDS011;43361;49.790;8.960;2023-02-11T14:24:58;216.98;;;76.78;;
57535;SDS011;43361;49.790;8.960;2023-02-11T14:35:01;202.90;;;74.00;;
57535;SDS011;43361;49.790;8.960;2023-02-11T14:45:06;173.80;;;64.13;;
57535;SDS011;43361;49.790;8.960;2023-02-11T14:55:12;169.60;;;61.85;;
57535;SDS011;43361;49.790;8.960;2023-02-11T15:05:16;169.77;;;62.10;;
57535;SDS011;43361;49.790;8.960;2023-02-11T15:15:18;143.13;;;56.60;;
57535;SDS011;43361;49.790;8.960;2023-02-11T15:25:20;140.70;;;52.00;;
57535;SDS011;43361;49.790;8.960;2023-02-11T15:35:22;135.40;;;49.08;;
57535;SDS011;43361;49.790;8.960;2023-02-11T15:45:25;124.88;;;48.33;;
57535;SDS011;43361;49.790;8.960;2023-02-11T15:55:28;119.07;;;45.40;;
57535;SDS011;43361;49.790;8.960;2023-02-11T16:05:33;113.70;;;42.40;;
57535;SDS011;43361;49.790;8.960;2023-02-11T16:15:41;108.03;;;42.17;;
57535;SDS011;43361;49.790;8.960;2023-02-11T16:25:43;111.60;;;41.58;;
57535;SDS011;43361;49.790;8.960;2023-02-11T16:35:44;110.43;;;40.72;;
57535;SDS011;43361;49.790;8.960;2023-02-11T16:45:48;105.70;;;39.70;;
57535;SDS011;43361;49.790;8.960;2023-02-11T16:55:48;93.18;;;37.05;;
57535;SDS011;43361;49.790;8.960;2023-02-11T17:05:50;91.43;;;36.10;;
57535;SDS011;43361;49.790;8.960;2023-02-11T17:15:52;79.45;;;34.35;;
57535;SDS011;43361;49.790;8.960;2023-02-11T17:25:57;92.70;;;32.70;;
57535;SDS011;43361;49.790;8.960;2023-02-11T17:35:57;79.65;;;31.35;;
57535;SDS011;43361;49.790;8.960;2023-02-11T17:45:59;81.88;;;32.70;;
57535;SDS011;43361;49.790;8.960;2023-02-11T17:56:00;79.55;;;30.20;;
57535;SDS011;43361;49.790;8.960;2023-02-11T18:06:02;76.82;;;28.98;;
57535;SDS011;43361;49.790;8.960;2023-02-11T18:16:02;65.63;;;27.45;;
57535;SDS011;43361;49.790;8.960;2023-02-11T18:26:06;58.45;;;24.73;;
57535;SDS011;43361;49.790;8.960;2023-02-11T18:36:08;45.88;;;22.42;;
57535;SDS011;43361;49.790;8.960;2023-02-11T18:46:10;50.55;;;22.00;;
57535;SDS011;43361;49.790;8.960;2023-02-11T18:56:12;44.38;;;20.83;;
57535;SDS011;43361;49.790;8.960;2023-02-11T19:06:16;46.17;;;20.27;;
57535;SDS011;43361;49.790;8.960;2023-02-11T19:16:16;44.97;;;19.15;;
57535;SDS011;43361;49.790;8.960;2023-02-11T19:26:23;44.03;;;20.63;;
57535;SDS011;43361;49.790;8.960;2023-02-11T19:36:24;45.95;;;20.15;;
57535;SDS011;43361;49.790;8.960;2023-02-11T19:46:26;44.58;;;18.52;;
57535;SDS011;43361;49.790;8.960;2023-02-11T19:56:28;39.67;;;18.23;;
57535;SDS011;43361;49.790;8.960;2023-02-11T20:06:30;39.65;;;18.75;;
57535;SDS011;43361;49.790;8.960;2023-02-11T20:16:31;34.65;;;16.48;;
57535;SDS011;43361;49.790;8.960;2023-02-11T20:26:33;37.40;;;17.08;;
57535;SDS011;43361;49.790;8.960;2023-02-11T20:36:34;33.42;;;15.75;;
57535;SDS011;43361;49.790;8.960;2023-02-11T20:46:38;35.80;;;16.63;;
57535;SDS011;43361;49.790;8.960;2023-02-11T20:56:39;32.38;;;15.63;;
57535;SDS011;43361;49.790;8.960;2023-02-11T21:06:42;33.70;;;15.95;;
57535;SDS011;43361;49.790;8.960;2023-02-11T21:16:46;29.40;;;14.25;;
57535;SDS011;43361;49.790;8.960;2023-02-11T21:26:48;27.25;;;13.65;;
57535;SDS011;43361;49.790;8.960;2023-02-11T21:37:01;27.25;;;13.25;;
57535;SDS011;43361;49.790;8.960;2023-02-11T21:47:04;31.08;;;14.40;;
57535;SDS011;43361;49.790;8.960;2023-02-11T21:57:04;29.15;;;13.90;;
57535;SDS011;43361;49.790;8.960;2023-02-11T22:07:06;25.15;;;12.48;;
57535;SDS011;43361;49.790;8.960;2023-02-11T22:17:06;26.25;;;13.10;;
57535;SDS011;43361;49.790;8.960;2023-02-11T22:27:09;30.02;;;12.50;;
57535;SDS011;43361;49.790;8.960;2023-02-11T22:37:09;26.33;;;12.65;;
57535;SDS011;43361;49.790;8.960;2023-02-11T22:47:11;23.85;;;11.55;;
57535;SDS011;43361;49.790;8.960;2023-02-11T22:57:11;24.15;;;11.27;;
57535;SDS011;43361;49.790;8.960;2023-02-11T23:07:13;23.63;;;11.85;;
57535;SDS011;43361;49.790;8.960;2023-02-11T23:17:13;21.83;;;11.35;;
57535;SDS011;43361;49.790;8.960;2023-02-11T23:27:15;20.75;;;10.95;;
57535;SDS011;43361;49.790;8.960;2023-02-11T23:37:15;20.52;;;10.60;;
57535;SDS011;43361;49.790;8.960;2023-02-11T23:47:17;21.27;;;10.77;;
57535;SDS011;43361;49.790;8.960;2023-02-11T23:57:18;19.05;;;10.15;;
